createdAt,value
2019-02-14T00:01:36.764Z,73.86
2019-02-14T00:04:05.056Z,73.57
2019-02-14T00:06:33.049Z,73.23
2019-02-14T00:09:01.318Z,74.33
2019-02-14T00:11:30.421Z,74.23
2019-02-14T00:13:58.386Z,74.25
2019-02-14T00:16:26.664Z,74.54
2019-02-14T00:18:54.909Z,75.78
2019-02-14T00:21:23.926Z,76.14
2019-02-14T00:23:51.918Z,75.78
2019-02-14T00:26:19.959Z,75.83
2019-02-14T00:28:48.370Z,75.18
2019-02-14T00:31:16.510Z,74.90
2019-02-14T00:33:44.628Z,75.16
2019-02-14T00:36:12.744Z,75.64
2019-02-14T00:38:41.053Z,75.80
2019-02-14T00:41:09.034Z,75.95
2019-02-14T00:43:37.996Z,76.63
2019-02-14T00:46:06.098Z,76.47
2019-02-14T00:48:34.035Z,75.85
2019-02-14T00:51:02.143Z,76.08
2019-02-14T00:53:30.128Z,76.37
2019-02-14T00:55:58.214Z,76.21
2019-02-14T00:58:26.198Z,76.44
2019-02-14T01:00:54.214Z,76.41
2019-02-14T01:03:22.197Z,76.58
2019-02-14T01:05:50.949Z,76.99
2019-02-14T01:08:19.075Z,77.44
2019-02-14T01:10:47.070Z,77.54
2019-02-14T01:13:15.078Z,77.90
2019-02-14T01:15:43.726Z,77.32
2019-02-14T01:18:11.990Z,77.72
2019-02-14T01:20:40.061Z,78.25
2019-02-14T01:23:08.320Z,78.81
2019-02-14T01:25:36.390Z,78.38
2019-02-14T01:28:04.424Z,77.65
2019-02-14T01:30:32.340Z,77.78
2019-02-14T01:33:00.497Z,77.92
2019-02-14T01:35:28.444Z,76.79
2019-02-14T01:37:56.633Z,76.15
2019-02-14T01:40:24.906Z,76.72
2019-02-14T01:42:52.857Z,77.15
2019-02-14T01:45:21.067Z,77.57
2019-02-14T01:47:49.015Z,77.79
2019-02-14T01:50:17.206Z,77.77
2019-02-14T01:52:45.234Z,77.78
2019-02-14T01:55:13.882Z,78.24
2019-02-14T01:57:41.865Z,78.54
2019-02-14T02:00:13.108Z,77.87
2019-02-14T02:02:41.094Z,78.36
2019-02-14T02:05:10.073Z,78.58
2019-02-14T02:07:38.045Z,78.75
2019-02-14T02:10:07.894Z,78.63
2019-02-14T02:12:36.162Z,77.41
2019-02-14T02:15:04.793Z,77.12
2019-02-14T02:17:34.758Z,77.51
2019-02-14T02:20:02.813Z,77.64
2019-02-14T02:22:30.778Z,78.18
2019-02-14T02:24:58.750Z,78.45
2019-02-14T02:27:26.796Z,78.01
2019-02-14T02:29:54.785Z,78.11
2019-02-14T02:32:23.043Z,78.05
2019-02-14T02:34:51.075Z,77.43
2019-02-14T02:37:19.124Z,77.06
2019-02-14T02:39:47.091Z,77.80
2019-02-14T02:42:15.344Z,78.08
2019-02-14T02:44:43.291Z,78.94
2019-02-14T02:47:11.261Z,78.59
2019-02-14T02:49:39.341Z,78.65
2019-02-14T02:52:07.301Z,78.75
2019-02-14T02:54:35.331Z,79.01
2019-02-14T02:57:03.636Z,78.55
2019-02-14T02:59:31.725Z,78.50
2019-02-14T03:01:59.691Z,78.55
2019-02-14T03:04:28.760Z,78.82
2019-02-14T03:06:56.756Z,78.79
2019-02-14T03:09:24.728Z,78.53
2019-02-14T03:11:52.707Z,78.94
2019-02-14T03:14:20.859Z,79.45
2019-02-14T03:16:49.079Z,78.89
2019-02-14T03:19:18.557Z,79.55
2019-02-14T03:21:46.574Z,78.91
2019-02-14T03:24:14.869Z,79.25
2019-02-14T03:26:43.042Z,79.21
2019-02-14T03:29:10.991Z,79.54
2019-02-14T03:31:39.016Z,79.46
2019-02-14T03:34:06.967Z,79.20
2019-02-14T03:36:34.918Z,79.08
2019-02-14T03:39:04.247Z,79.26
2019-02-14T03:41:32.413Z,79.30
2019-02-14T03:44:00.476Z,79.29
2019-02-14T03:46:28.408Z,79.55
2019-02-14T03:48:56.411Z,80.00
2019-02-14T03:51:24.647Z,79.95
2019-02-14T03:53:52.631Z,79.90
2019-02-14T03:56:20.609Z,79.76
2019-02-14T03:58:48.741Z,79.59
2019-02-14T04:01:16.808Z,80.08
2019-02-14T04:03:44.744Z,80.15
2019-02-14T04:06:13.168Z,80.59
2019-02-14T04:08:41.201Z,80.93
2019-02-14T04:11:11.165Z,80.33
2019-02-14T04:13:40.438Z,80.13
2019-02-14T04:16:09.585Z,80.13
2019-02-14T04:18:39.048Z,80.41
2019-02-14T04:21:07.234Z,80.39
2019-02-14T04:23:35.494Z,80.76
2019-02-14T04:26:03.448Z,80.43
2019-02-14T04:28:31.613Z,80.51
2019-02-14T04:30:59.571Z,80.59
2019-02-14T04:33:27.488Z,80.95
2019-02-14T04:35:55.478Z,80.93
2019-02-14T04:38:23.592Z,81.60
2019-02-14T04:40:51.734Z,81.83
2019-02-14T04:43:19.966Z,81.30
2019-02-14T04:45:47.936Z,81.38
2019-02-14T04:48:15.880Z,81.42
2019-02-14T04:50:43.873Z,81.04
2019-02-14T04:53:12.136Z,81.18
2019-02-14T04:55:40.392Z,81.37
2019-02-14T04:58:08.625Z,81.24
2019-02-14T05:00:36.749Z,81.45
2019-02-14T05:03:04.971Z,82.10
2019-02-14T05:05:32.990Z,82.41
2019-02-14T05:08:01.006Z,82.80
2019-02-14T05:10:29.158Z,82.61
2019-02-14T05:12:57.107Z,82.27
2019-02-14T05:15:25.336Z,81.38
2019-02-14T05:17:53.328Z,80.59
2019-02-14T05:20:21.251Z,81.60
2019-02-14T05:22:49.600Z,81.83
2019-02-14T05:25:17.597Z,81.96
2019-02-14T05:27:45.623Z,81.54
2019-02-14T05:30:13.663Z,81.45
2019-02-14T05:32:41.588Z,81.66
2019-02-14T05:35:09.611Z,81.58
2019-02-14T05:37:37.530Z,81.40
2019-02-14T05:40:07.211Z,81.73
2019-02-14T05:42:35.672Z,82.32
2019-02-14T05:45:04.050Z,82.67
2019-02-14T05:47:32.036Z,82.41
2019-02-14T05:50:00.329Z,81.81
2019-02-14T05:52:28.355Z,81.66
2019-02-14T05:54:56.289Z,82.52
2019-02-14T05:57:24.321Z,82.65
2019-02-14T05:59:52.776Z,82.70
2019-02-14T06:02:20.983Z,82.61
2019-02-14T06:04:48.928Z,83.10
2019-02-14T06:07:17.016Z,83.44
2019-02-14T06:09:44.997Z,83.52
2019-02-14T06:12:13.100Z,83.67
2019-02-14T06:14:41.024Z,83.75
2019-02-14T06:17:09.073Z,83.51
2019-02-14T06:19:37.397Z,83.27
2019-02-14T06:22:05.634Z,82.95
2019-02-14T06:24:33.785Z,82.70
2019-02-14T06:27:01.758Z,82.88
2019-02-14T06:29:29.749Z,82.78
2019-02-14T06:31:57.766Z,82.60
2019-02-14T06:34:25.810Z,82.16
2019-02-14T06:36:53.769Z,82.38
2019-02-14T06:39:21.734Z,82.18
2019-02-14T06:41:49.697Z,82.58
2019-02-14T06:44:17.954Z,84.08
2019-02-14T06:46:46.223Z,82.30
2019-02-14T06:49:14.232Z,81.37
2019-02-14T06:51:42.604Z,81.48
2019-02-14T06:54:10.638Z,79.84
2019-02-14T06:56:38.627Z,79.45
2019-02-14T06:59:06.624Z,79.96
2019-02-14T07:01:34.589Z,80.95
2019-02-14T07:04:03.246Z,81.38
2019-02-14T07:06:31.486Z,80.79
2019-02-14T07:08:59.510Z,80.92
2019-02-14T07:11:27.507Z,80.28
2019-02-14T07:13:55.754Z,80.21
2019-02-14T07:16:23.989Z,80.35
2019-02-14T07:18:51.970Z,79.90
2019-02-14T07:21:21.852Z,79.39
2019-02-14T07:23:49.884Z,79.47
2019-02-14T07:26:18.162Z,79.93
2019-02-14T07:28:46.303Z,78.96
2019-02-14T07:31:14.331Z,78.28
2019-02-14T07:33:42.323Z,77.72
2019-02-14T07:36:10.445Z,76.91
2019-02-14T07:38:38.551Z,76.63
2019-02-14T07:41:06.598Z,76.44
2019-02-14T07:43:34.849Z,75.69
2019-02-14T07:46:02.901Z,75.47
2019-02-14T07:48:30.932Z,75.87
2019-02-14T07:50:59.126Z,75.43
2019-02-14T07:53:27.070Z,74.57
2019-02-14T07:55:55.432Z,73.95
2019-02-14T07:58:23.433Z,72.83
2019-02-14T08:00:51.716Z,72.33
2019-02-14T08:03:20.284Z,71.99
2019-02-14T08:05:48.400Z,71.03
2019-02-14T08:08:16.477Z,70.65
2019-02-14T08:10:45.612Z,69.89
2019-02-14T08:13:13.748Z,69.50
2019-02-14T08:15:41.752Z,68.49
2019-02-14T08:18:10.166Z,68.01
2019-02-14T08:20:38.123Z,67.48
2019-02-14T08:23:06.116Z,66.12
2019-02-14T08:25:34.145Z,65.05
2019-02-14T08:28:02.182Z,65.09
2019-02-14T08:30:30.525Z,65.18
2019-02-14T08:32:58.515Z,64.38
2019-02-14T08:35:26.660Z,64.25
2019-02-14T08:37:54.705Z,64.68
2019-02-14T08:40:23.928Z,65.09
2019-02-14T08:42:51.901Z,65.20
2019-02-14T08:45:19.897Z,64.38
2019-02-14T08:47:47.868Z,64.33
2019-02-14T08:50:15.934Z,64.48
2019-02-14T08:52:44.439Z,64.50
2019-02-14T08:55:15.072Z,63.73
2019-02-14T08:57:43.138Z,63.61
2019-02-14T09:00:12.043Z,63.55
2019-02-14T09:02:40.309Z,63.12
2019-02-14T09:05:09.587Z,62.34
2019-02-14T09:07:37.999Z,61.22
2019-02-14T09:10:08.533Z,60.18
2019-02-14T09:12:36.566Z,61.65
2019-02-14T09:15:04.953Z,61.41
2019-02-14T09:17:32.954Z,58.40
2019-02-14T09:20:00.935Z,59.46
2019-02-14T09:22:29.168Z,57.23
2019-02-14T09:24:57.166Z,58.94
2019-02-14T09:27:25.138Z,58.51
2019-02-14T09:29:53.104Z,58.28
2019-02-14T09:32:24.790Z,56.77
2019-02-14T09:34:52.928Z,58.43
2019-02-14T09:37:20.889Z,57.86
2019-02-14T09:39:49.460Z,56.86
2019-02-14T09:42:17.536Z,56.98
2019-02-14T09:44:45.835Z,58.03
2019-02-14T09:47:13.806Z,57.75
2019-02-14T09:49:41.965Z,57.72
2019-02-14T09:52:10.087Z,56.63
2019-02-14T09:54:38.372Z,56.71
2019-02-14T09:57:06.401Z,55.73
2019-02-14T09:59:34.438Z,56.00
2019-02-14T10:02:03.010Z,55.76
2019-02-14T10:04:31.276Z,56.19
2019-02-14T10:06:59.342Z,55.35
2019-02-14T10:09:27.332Z,55.77
2019-02-14T10:11:55.891Z,55.99
2019-02-14T10:14:24.340Z,56.11
2019-02-14T10:16:52.290Z,55.95
2019-02-14T10:19:20.578Z,55.14
2019-02-14T10:21:48.860Z,55.94
2019-02-14T10:24:17.811Z,55.19
2019-02-14T10:26:45.780Z,53.70
2019-02-14T10:29:14.052Z,53.08
2019-02-14T10:31:42.294Z,51.14
2019-02-14T10:34:10.324Z,51.05
2019-02-14T10:36:38.308Z,50.59
2019-02-14T10:39:06.281Z,50.56
2019-02-14T10:41:34.578Z,50.02
2019-02-14T10:44:02.667Z,49.09
2019-02-14T10:46:30.734Z,48.19
2019-02-14T10:48:58.889Z,47.82
2019-02-14T10:51:26.986Z,47.89
2019-02-14T10:53:55.292Z,47.41
2019-02-14T10:56:23.382Z,46.30
2019-02-14T10:58:51.603Z,46.15
2019-02-14T11:01:20.110Z,45.33
2019-02-14T11:03:49.582Z,44.50
2019-02-14T11:06:17.718Z,44.15
2019-02-14T11:08:45.859Z,42.78
2019-02-14T11:11:13.977Z,42.89
2019-02-14T11:13:42.362Z,41.59
2019-02-14T11:16:10.656Z,42.66
2019-02-14T11:18:44.195Z,40.93
2019-02-14T11:21:09.666Z,39.26
2019-02-14T11:23:37.806Z,38.77
2019-02-14T11:26:05.818Z,39.15
2019-02-14T11:28:34.050Z,38.00
2019-02-14T11:31:02.152Z,37.13
2019-02-14T11:33:30.568Z,37.30
2019-02-14T11:35:58.845Z,37.57
2019-02-14T11:38:26.855Z,38.22
2019-02-14T11:40:54.907Z,38.04
2019-02-14T11:43:22.954Z,39.08
2019-02-14T11:45:50.925Z,37.45
2019-02-14T11:48:18.965Z,37.18
2019-02-14T11:50:47.484Z,37.38
2019-02-14T11:53:15.567Z,35.77
2019-02-14T11:55:44.307Z,35.62
2019-02-14T11:58:13.216Z,34.56
2019-02-14T12:00:41.465Z,32.97
2019-02-14T12:03:09.598Z,34.19
2019-02-14T12:05:37.638Z,34.41
2019-02-14T12:08:09.445Z,34.05
2019-02-14T12:10:37.542Z,33.68
2019-02-14T12:13:05.573Z,34.17
2019-02-14T12:15:33.707Z,34.29
2019-02-14T12:18:01.809Z,34.57
2019-02-14T12:20:30.082Z,35.18
2019-02-14T12:22:58.134Z,35.00
2019-02-14T12:25:26.257Z,33.98
2019-02-14T12:27:54.471Z,34.12
2019-02-14T12:30:22.625Z,32.82
2019-02-14T12:32:50.629Z,33.12
2019-02-14T12:35:18.770Z,34.80
2019-02-14T12:37:47.296Z,33.72
2019-02-14T12:40:16.450Z,32.72
2019-02-14T12:42:44.854Z,33.08
2019-02-14T12:45:21.601Z,32.18
2019-02-14T12:47:46.593Z,32.04
2019-02-14T12:50:14.843Z,32.22
2019-02-14T12:52:42.878Z,31.79
2019-02-14T12:55:10.982Z,31.70
2019-02-14T12:57:39.026Z,30.48
2019-02-14T13:00:11.823Z,29.94
2019-02-14T13:02:40.424Z,29.87
2019-02-14T13:05:09.212Z,30.14
2019-02-14T13:07:37.522Z,29.65
2019-02-14T13:10:06.835Z,30.29
2019-02-14T13:12:34.872Z,29.69
2019-02-14T13:15:03.563Z,28.66
2019-02-14T13:17:31.962Z,28.33
2019-02-14T13:19:59.996Z,27.85
2019-02-14T13:22:27.994Z,27.59
2019-02-14T13:24:55.971Z,28.08
2019-02-14T13:27:24.246Z,28.19
2019-02-14T13:29:52.214Z,25.91
2019-02-14T13:32:20.291Z,24.23
2019-02-14T13:34:48.281Z,21.90
2019-02-14T13:37:16.329Z,22.08
2019-02-14T13:39:44.570Z,20.77
2019-02-14T13:42:12.690Z,21.11
2019-02-14T13:44:42.972Z,20.89
2019-02-14T13:47:10.905Z,21.90
2019-02-14T13:49:38.908Z,24.21
2019-02-14T13:52:06.845Z,25.12
2019-02-14T13:54:34.941Z,24.67
2019-02-14T13:57:02.916Z,23.52
2019-02-14T13:59:32.113Z,24.48
2019-02-14T14:02:00.247Z,25.83
2019-02-14T14:04:28.501Z,27.55
2019-02-14T14:06:56.596Z,27.83
2019-02-14T14:09:24.603Z,27.59
2019-02-14T14:11:54.499Z,28.34
2019-02-14T14:14:22.741Z,27.91
2019-02-14T14:16:51.326Z,25.80
2019-02-14T14:19:19.414Z,25.65
2019-02-14T14:21:47.765Z,25.42
2019-02-14T14:24:15.729Z,26.46
2019-02-14T14:26:44.333Z,25.04
2019-02-14T14:29:13.607Z,25.56
2019-02-14T14:31:41.711Z,24.46
2019-02-14T14:34:10.540Z,24.82
2019-02-14T14:36:38.796Z,26.26
2019-02-14T14:39:07.867Z,26.85
2019-02-14T14:41:35.797Z,27.57
2019-02-14T14:44:16.469Z,27.12
2019-02-14T14:46:48.985Z,27.75
2019-02-14T14:49:17.452Z,29.48
2019-02-14T14:51:45.606Z,25.85
2019-02-14T14:54:13.852Z,24.57
2019-02-14T14:56:41.979Z,23.52
2019-02-14T14:59:10.026Z,23.91
2019-02-14T15:01:38.291Z,21.71
2019-02-14T15:04:06.363Z,19.88
2019-02-14T15:06:34.346Z,18.45
2019-02-14T15:09:02.695Z,16.23
2019-02-14T15:11:32.027Z,15.51
2019-02-14T15:14:00.333Z,14.96
2019-02-14T15:16:28.344Z,16.00
2019-02-14T15:18:56.283Z,18.33
2019-02-14T15:21:24.418Z,17.07
2019-02-14T15:23:52.661Z,16.85
2019-02-14T15:26:20.903Z,19.52
2019-02-14T15:28:49.005Z,23.10
2019-02-14T15:31:17.018Z,24.46
2019-02-14T15:33:46.182Z,24.64
2019-02-14T15:36:14.355Z,27.37
2019-02-14T15:38:42.433Z,30.18
2019-02-14T15:41:10.744Z,31.01
2019-02-14T15:43:38.853Z,32.17
2019-02-14T15:46:07.085Z,32.33
2019-02-14T15:48:35.054Z,32.55
2019-02-14T15:51:03.054Z,33.11
2019-02-14T15:53:31.174Z,34.50
2019-02-14T15:55:59.200Z,35.74
2019-02-14T15:58:28.698Z,36.28
2019-02-14T16:00:59.073Z,37.70
2019-02-14T16:03:28.189Z,38.54
2019-02-14T16:05:56.812Z,39.37
2019-02-14T16:08:24.781Z,40.75
2019-02-14T16:10:55.597Z,40.23
2019-02-14T16:13:23.004Z,40.63
2019-02-14T16:15:53.722Z,41.62
2019-02-14T16:18:23.130Z,42.94
2019-02-14T16:20:52.727Z,42.96
2019-02-14T16:23:20.753Z,43.31
2019-02-14T16:25:50.038Z,45.99
2019-02-14T16:28:20.080Z,45.34
2019-02-14T16:30:48.187Z,45.91
2019-02-14T16:33:16.233Z,46.16
2019-02-14T16:35:51.214Z,46.32
2019-02-14T16:38:19.350Z,50.10
2019-02-14T16:40:51.827Z,49.20
2019-02-14T16:43:20.215Z,48.04
2019-02-14T16:45:49.824Z,48.53
2019-02-14T16:48:17.860Z,49.01
2019-02-14T16:50:46.051Z,49.90
2019-02-14T16:53:14.174Z,50.38
2019-02-14T16:55:42.215Z,51.00
2019-02-14T16:58:10.259Z,51.44
2019-02-14T17:00:38.280Z,51.71
2019-02-14T17:03:06.796Z,52.23
2019-02-14T17:05:34.882Z,52.71
2019-02-14T17:08:03.379Z,53.13
2019-02-14T17:10:36.936Z,53.66
2019-02-14T17:13:01.602Z,53.78
2019-02-14T17:15:29.727Z,53.87
2019-02-14T17:17:58.602Z,54.24
2019-02-14T17:20:26.621Z,58.14
2019-02-14T17:22:54.641Z,56.29
2019-02-14T17:25:26.023Z,56.04
2019-02-14T17:27:54.132Z,55.85
2019-02-14T17:30:22.445Z,55.86
2019-02-14T17:32:50.712Z,56.41
2019-02-14T17:35:22.458Z,57.17
2019-02-14T17:37:51.116Z,57.26
2019-02-14T17:40:19.264Z,57.51
2019-02-14T17:42:47.551Z,58.27
2019-02-14T17:45:15.672Z,58.33
2019-02-14T17:47:43.923Z,58.59
2019-02-14T17:50:11.982Z,58.76
2019-02-14T17:52:41.162Z,58.83
2019-02-14T17:55:09.743Z,59.10
2019-02-14T17:57:37.865Z,59.40
2019-02-14T18:00:09.202Z,59.87
2019-02-14T18:02:37.544Z,60.05
2019-02-14T18:05:06.642Z,60.18
2019-02-14T18:07:34.998Z,60.54
2019-02-14T18:10:03.772Z,60.93
2019-02-14T18:12:32.085Z,62.38
2019-02-14T18:15:00.295Z,62.57
2019-02-14T18:17:29.296Z,61.93
2019-02-14T18:19:57.403Z,61.77
2019-02-14T18:22:25.885Z,62.16
2019-02-14T18:24:53.913Z,62.66
2019-02-14T18:27:22.169Z,63.09
2019-02-14T18:29:50.160Z,63.78
2019-02-14T18:32:18.643Z,63.63
2019-02-14T18:34:46.725Z,64.01
2019-02-14T18:37:14.701Z,63.97
2019-02-14T18:39:42.875Z,64.14
2019-02-14T18:42:11.884Z,64.31
2019-02-14T18:44:40.072Z,64.68
2019-02-14T18:47:09.580Z,64.87
2019-02-14T18:49:38.047Z,65.08
2019-02-14T18:52:06.380Z,65.65
2019-02-14T18:54:35.363Z,65.67
2019-02-14T18:57:03.370Z,65.66
2019-02-14T18:59:31.333Z,65.78
2019-02-14T19:01:59.507Z,65.84
2019-02-14T19:04:27.478Z,65.93
2019-02-14T19:06:55.528Z,66.33
2019-02-14T19:09:23.646Z,67.36
2019-02-14T19:11:51.643Z,65.63
2019-02-14T19:14:19.833Z,66.19
2019-02-14T19:16:48.166Z,66.65
2019-02-14T19:19:16.572Z,66.73
2019-02-14T19:21:44.649Z,65.71
2019-02-14T19:24:12.866Z,65.55
2019-02-14T19:26:41.175Z,66.19
2019-02-14T19:29:09.439Z,65.88
2019-02-14T19:31:38.546Z,65.99
2019-02-14T19:34:06.637Z,66.20
2019-02-14T19:36:34.692Z,68.69
2019-02-14T19:39:04.269Z,68.75
2019-02-14T19:41:33.541Z,68.31
2019-02-14T19:44:01.525Z,68.96
2019-02-14T19:46:29.616Z,68.45
2019-02-14T19:48:57.573Z,68.54
2019-02-14T19:51:25.845Z,68.49
2019-02-14T19:53:53.927Z,69.27
2019-02-14T19:56:22.032Z,69.91
2019-02-14T19:58:51.036Z,69.07
2019-02-14T20:01:19.040Z,68.70
2019-02-14T20:03:47.412Z,68.88
2019-02-14T20:06:15.692Z,69.25
2019-02-14T20:08:44.033Z,69.77
2019-02-14T20:11:12.010Z,68.11
2019-02-14T20:13:49.145Z,69.81
2019-02-14T20:16:10.119Z,68.02
2019-02-14T20:18:38.703Z,67.24
2019-02-14T20:21:06.896Z,69.30
2019-02-14T20:23:34.809Z,67.94
2019-02-14T20:26:02.768Z,67.41
2019-02-14T20:28:30.828Z,68.33
2019-02-14T20:30:58.911Z,67.58
2019-02-14T20:33:27.084Z,68.86
2019-02-14T20:35:55.441Z,68.61
2019-02-14T20:38:24.052Z,69.83
2019-02-14T20:40:52.570Z,70.34
2019-02-14T20:43:20.602Z,70.51
2019-02-14T20:45:48.682Z,70.87
2019-02-14T20:48:16.748Z,69.43
2019-02-14T20:50:46.328Z,69.00
2019-02-14T20:53:14.295Z,69.90
2019-02-14T20:55:42.559Z,69.97
2019-02-14T20:58:10.670Z,69.57
2019-02-14T21:00:38.912Z,69.09
2019-02-14T21:03:06.966Z,70.41
2019-02-14T21:05:35.078Z,70.20
2019-02-14T21:08:03.139Z,70.48
2019-02-14T21:10:32.095Z,69.71
2019-02-14T21:13:00.398Z,70.36
2019-02-14T21:15:28.512Z,69.66
2019-02-14T21:17:56.585Z,68.61
2019-02-14T21:20:24.854Z,68.70
2019-02-14T21:22:52.875Z,68.94
2019-02-14T21:25:23.352Z,70.01
2019-02-14T21:27:51.138Z,70.86
2019-02-14T21:30:19.285Z,70.45
2019-02-14T21:32:47.465Z,70.28
2019-02-14T21:35:15.759Z,70.75
2019-02-14T21:37:44.114Z,72.61
2019-02-14T21:40:12.378Z,72.32
2019-02-14T21:42:40.454Z,72.99
2019-02-14T21:45:10.365Z,71.95
2019-02-14T21:47:38.451Z,70.86
2019-02-14T21:50:08.564Z,72.55
2019-02-14T21:52:36.617Z,71.55
2019-02-14T21:55:06.176Z,71.94
2019-02-14T21:57:34.687Z,71.22
2019-02-14T22:00:02.901Z,71.81
2019-02-14T22:02:30.942Z,72.36
2019-02-14T22:04:58.930Z,70.53
2019-02-14T22:07:26.950Z,70.68
2019-02-14T22:09:55.454Z,70.86
2019-02-14T22:12:38.664Z,71.30
2019-02-14T22:14:53.821Z,71.66
2019-02-14T22:17:22.807Z,71.52
2019-02-14T22:19:51.063Z,71.42
2019-02-14T22:22:19.489Z,71.35
2019-02-14T22:24:47.796Z,73.32
2019-02-14T22:27:15.815Z,72.62
2019-02-14T22:29:44.122Z,72.87
2019-02-14T22:32:12.363Z,73.15
2019-02-14T22:34:40.470Z,72.89
2019-02-14T22:37:08.487Z,71.88
2019-02-14T22:39:36.550Z,72.31
2019-02-14T22:42:04.521Z,71.84
2019-02-14T22:44:33.058Z,72.60
2019-02-14T22:47:01.424Z,72.53
2019-02-14T22:49:29.422Z,72.24
2019-02-14T22:51:57.458Z,72.12
2019-02-14T22:54:25.580Z,72.65
2019-02-14T22:56:53.532Z,73.15
2019-02-14T22:59:21.529Z,72.53
2019-02-14T23:01:49.824Z,72.38
2019-02-14T23:04:17.948Z,72.58
2019-02-14T23:06:46.260Z,72.75
2019-02-14T23:09:14.705Z,72.79
2019-02-14T23:11:42.975Z,72.69
2019-02-14T23:14:11.090Z,73.47
2019-02-14T23:16:39.055Z,72.76
2019-02-14T23:19:07.109Z,72.81
2019-02-14T23:21:35.152Z,72.56
2019-02-14T23:24:03.126Z,72.48
2019-02-14T23:26:31.585Z,73.17
2019-02-14T23:28:59.736Z,73.60
2019-02-14T23:31:27.719Z,73.18
2019-02-14T23:33:55.705Z,73.08
2019-02-14T23:36:23.672Z,72.57
2019-02-14T23:38:51.886Z,72.83
2019-02-14T23:41:19.915Z,73.12
2019-02-14T23:43:47.944Z,73.53
2019-02-14T23:46:16.187Z,73.23
2019-02-14T23:48:44.203Z,73.37
2019-02-14T23:51:12.694Z,73.34
2019-02-14T23:53:40.905Z,72.74
2019-02-14T23:56:08.893Z,72.79
2019-02-14T23:58:36.909Z,72.98
